sensor_id;sensor_type;location;lat;lon;timestamp;pressure;altitude;pressure_sealevel;temperature;humidity
51530;BME280;37613;51.788;21.582;2023-08-12T00:02:14;100754.14;;;12.50;72.01
51530;BME280;37613;51.788;21.582;2023-08-12T00:06:26;100755.95;;;12.44;72.26
51530;BME280;37613;51.788;21.582;2023-08-12T00:10:29;100758.96;;;12.40;72.50
51530;BME280;37613;51.788;21.582;2023-08-12T00:14:37;100756.50;;;12.35;72.67
51530;BME280;37613;51.788;21.582;2023-08-12T00:18:57;100759.11;;;12.30;72.74
51530;BME280;37613;51.788;21.582;2023-08-12T00:23:03;100756.80;;;12.25;72.85
51530;BME280;37613;51.788;21.582;2023-08-12T00:27:06;100757.35;;;12.20;73.01
51530;BME280;37613;51.788;21.582;2023-08-12T00:31:14;100756.08;;;12.17;73.15
51530;BME280;37613;51.788;21.582;2023-08-12T00:35:22;100755.98;;;12.13;73.22
51530;BME280;37613;51.788;21.582;2023-08-12T00:39:24;100751.54;;;12.08;73.11
51530;BME280;37613;51.788;21.582;2023-08-12T00:43:29;100753.35;;;12.02;73.40
51530;BME280;37613;51.788;21.582;2023-08-12T00:47:31;100756.10;;;11.97;73.60
51530;BME280;37613;51.788;21.582;2023-08-12T00:51:38;100750.40;;;11.92;73.63
51530;BME280;37613;51.788;21.582;2023-08-12T00:55:50;100749.42;;;11.87;73.65
51530;BME280;37613;51.788;21.582;2023-08-12T00:59:54;100749.30;;;11.80;73.85
51530;BME280;37613;51.788;21.582;2023-08-12T01:04:06;100749.19;;;11.73;73.84
51530;BME280;37613;51.788;21.582;2023-08-12T01:08:09;100746.09;;;11.70;74.11
51530;BME280;37613;51.788;21.582;2023-08-12T01:12:34;100743.37;;;11.65;74.13
51530;BME280;37613;51.788;21.582;2023-08-12T01:16:51;100741.69;;;11.61;74.16
51530;BME280;37613;51.788;21.582;2023-08-12T01:20:55;100740.16;;;11.56;74.36
51530;BME280;37613;51.788;21.582;2023-08-12T01:25:16;100738.40;;;11.52;74.36
51530;BME280;37613;51.788;21.582;2023-08-12T01:29:27;100739.82;;;11.47;74.43
51530;BME280;37613;51.788;21.582;2023-08-12T01:33:42;100737.33;;;11.41;74.56
51530;BME280;37613;51.788;21.582;2023-08-12T01:37:46;100739.36;;;11.36;74.57
51530;BME280;37613;51.788;21.582;2023-08-12T01:41:50;100739.50;;;11.32;74.65
51530;BME280;37613;51.788;21.582;2023-08-12T01:45:56;100740.73;;;11.27;74.73
51530;BME280;37613;51.788;21.582;2023-08-12T01:50:01;100736.67;;;11.22;74.76
51530;BME280;37613;51.788;21.582;2023-08-12T01:54:06;100739.25;;;11.16;74.94
51530;BME280;37613;51.788;21.582;2023-08-12T01:58:11;100739.23;;;11.12;74.88
51530;BME280;37613;51.788;21.582;2023-08-12T02:02:19;100739.05;;;11.08;74.95
51530;BME280;37613;51.788;21.582;2023-08-12T02:06:24;100737.82;;;11.03;75.13
51530;BME280;37613;51.788;21.582;2023-08-12T02:10:29;100731.85;;;10.97;75.17
51530;BME280;37613;51.788;21.582;2023-08-12T02:14:40;100728.42;;;10.93;75.37
51530;BME280;37613;51.788;21.582;2023-08-12T02:18:45;100738.36;;;10.88;75.41
51530;BME280;37613;51.788;21.582;2023-08-12T02:22:50;100737.31;;;10.85;75.51
51530;BME280;37613;51.788;21.582;2023-08-12T02:26:53;100740.77;;;10.83;75.47
51530;BME280;37613;51.788;21.582;2023-08-12T02:31:20;100744.60;;;10.78;75.55
51530;BME280;37613;51.788;21.582;2023-08-12T02:35:25;100741.95;;;10.74;75.59
51530;BME280;37613;51.788;21.582;2023-08-12T02:39:30;100744.63;;;10.70;75.87
51530;BME280;37613;51.788;21.582;2023-08-12T02:43:32;100746.02;;;10.66;75.88
51530;BME280;37613;51.788;21.582;2023-08-12T02:47:43;100748.67;;;10.63;75.93
51530;BME280;37613;51.788;21.582;2023-08-12T02:52:00;100753.48;;;10.59;76.02
51530;BME280;37613;51.788;21.582;2023-08-12T02:56:20;100752.10;;;10.57;75.99
51530;BME280;37613;51.788;21.582;2023-08-12T03:00:29;100753.20;;;10.54;76.15
51530;BME280;37613;51.788;21.582;2023-08-12T03:04:33;100758.70;;;10.51;76.27
51530;BME280;37613;51.788;21.582;2023-08-12T03:08:44;100762.30;;;10.49;76.34
51530;BME280;37613;51.788;21.582;2023-08-12T03:12:46;100764.98;;;10.47;76.59
51530;BME280;37613;51.788;21.582;2023-08-12T03:17:03;100762.85;;;10.47;76.53
51530;BME280;37613;51.788;21.582;2023-08-12T03:21:08;100765.22;;;10.46;76.58
51530;BME280;37613;51.788;21.582;2023-08-12T03:25:13;100767.90;;;10.46;76.67
51530;BME280;37613;51.788;21.582;2023-08-12T03:29:16;100770.83;;;10.47;76.62
51530;BME280;37613;51.788;21.582;2023-08-12T03:33:19;100774.86;;;10.48;76.82
51530;BME280;37613;51.788;21.582;2023-08-12T03:37:21;100779.80;;;10.51;77.05
51530;BME280;37613;51.788;21.582;2023-08-12T03:41:25;100780.95;;;10.56;77.05
51530;BME280;37613;51.788;21.582;2023-08-12T03:45:44;100787.41;;;10.61;77.17
51530;BME280;37613;51.788;21.582;2023-08-12T03:49:55;100791.09;;;10.67;77.26
51530;BME280;37613;51.788;21.582;2023-08-12T03:53:59;100790.38;;;10.75;77.47
51530;BME280;37613;51.788;21.582;2023-08-12T03:58:04;100792.64;;;10.92;77.79
51530;BME280;37613;51.788;21.582;2023-08-12T04:02:09;100794.98;;;11.21;78.07
51530;BME280;37613;51.788;21.582;2023-08-12T04:06:18;100792.96;;;11.56;78.40
51530;BME280;37613;51.788;21.582;2023-08-12T04:10:26;100799.44;;;12.52;80.12
51530;BME280;37613;51.788;21.582;2023-08-12T04:14:33;100794.66;;;14.41;81.53
51530;BME280;37613;51.788;21.582;2023-08-12T04:18:36;100794.10;;;16.16;80.70
51530;BME280;37613;51.788;21.582;2023-08-12T04:22:44;100794.52;;;17.78;80.47
51530;BME280;37613;51.788;21.582;2023-08-12T04:26:52;100795.73;;;19.32;79.37
51530;BME280;37613;51.788;21.582;2023-08-12T04:31:19;100792.84;;;20.69;77.95
51530;BME280;37613;51.788;21.582;2023-08-12T04:35:31;100797.23;;;21.95;76.61
51530;BME280;37613;51.788;21.582;2023-08-12T04:39:43;100793.39;;;23.01;74.45
51530;BME280;37613;51.788;21.582;2023-08-12T04:43:48;100796.04;;;24.00;72.29
51530;BME280;37613;51.788;21.582;2023-08-12T04:47:50;100793.08;;;24.79;70.58
51530;BME280;37613;51.788;21.582;2023-08-12T04:51:55;100798.17;;;25.46;68.18
51530;BME280;37613;51.788;21.582;2023-08-12T04:56:00;100798.42;;;26.11;66.57
51530;BME280;37613;51.788;21.582;2023-08-12T05:00:02;100804.47;;;26.81;65.01
51530;BME280;37613;51.788;21.582;2023-08-12T05:04:10;100800.90;;;27.63;62.90
51530;BME280;37613;51.788;21.582;2023-08-12T05:08:15;100793.45;;;28.32;60.06
51530;BME280;37613;51.788;21.582;2023-08-12T05:12:20;100790.89;;;28.87;57.91
51530;BME280;37613;51.788;21.582;2023-08-12T05:16:36;100789.98;;;29.64;56.05
51530;BME280;37613;51.788;21.582;2023-08-12T05:20:39;100787.00;;;30.13;53.22
51530;BME280;37613;51.788;21.582;2023-08-12T05:24:45;100783.00;;;30.54;51.64
51530;BME280;37613;51.788;21.582;2023-08-12T05:28:47;100785.80;;;31.28;50.43
51530;BME280;37613;51.788;21.582;2023-08-12T05:32:52;100787.93;;;31.87;48.80
51530;BME280;37613;51.788;21.582;2023-08-12T05:36:57;100787.55;;;32.18;47.35
51530;BME280;37613;51.788;21.582;2023-08-12T05:41:02;100788.20;;;32.06;46.21
51530;BME280;37613;51.788;21.582;2023-08-12T05:45:17;100780.59;;;31.09;45.10
51530;BME280;37613;51.788;21.582;2023-08-12T05:49:26;100772.06;;;29.31;44.60
51530;BME280;37613;51.788;21.582;2023-08-12T05:53:37;100768.05;;;28.01;44.54
51530;BME280;37613;51.788;21.582;2023-08-12T05:57:40;100768.05;;;26.95;44.42
51530;BME280;37613;51.788;21.582;2023-08-12T06:01:42;100761.39;;;26.06;44.69
51530;BME280;37613;51.788;21.582;2023-08-12T06:05:56;100755.63;;;25.50;45.17
51530;BME280;37613;51.788;21.582;2023-08-12T06:10:01;100752.47;;;25.10;45.52
51530;BME280;37613;51.788;21.582;2023-08-12T06:14:06;100749.48;;;24.96;46.11
51530;BME280;37613;51.788;21.582;2023-08-12T06:18:39;100749.16;;;24.96;46.66
51530;BME280;37613;51.788;21.582;2023-08-12T06:23:06;100752.13;;;24.87;47.28
51530;BME280;37613;51.788;21.582;2023-08-12T06:27:11;100752.63;;;24.96;47.80
51530;BME280;37613;51.788;21.582;2023-08-12T06:31:39;100754.80;;;25.13;48.11
51530;BME280;37613;51.788;21.582;2023-08-12T06:35:59;100752.64;;;25.31;48.62
51530;BME280;37613;51.788;21.582;2023-08-12T06:40:11;100753.27;;;25.50;48.82
51530;BME280;37613;51.788;21.582;2023-08-12T06:44:13;100754.19;;;25.58;47.94
51530;BME280;37613;51.788;21.582;2023-08-12T06:48:15;100750.14;;;25.67;47.71
51530;BME280;37613;51.788;21.582;2023-08-12T06:52:32;100746.90;;;25.75;47.06
51530;BME280;37613;51.788;21.582;2023-08-12T06:56:34;100746.20;;;26.00;47.97
51530;BME280;37613;51.788;21.582;2023-08-12T07:00:39;100749.34;;;26.26;48.21
51530;BME280;37613;51.788;21.582;2023-08-12T07:04:49;100749.00;;;26.49;47.70
51530;BME280;37613;51.788;21.582;2023-08-12T07:08:51;100752.39;;;26.48;45.99
51530;BME280;37613;51.788;21.582;2023-08-12T07:13:05;100754.08;;;26.40;45.25
51530;BME280;37613;51.788;21.582;2023-08-12T07:17:10;100756.83;;;26.32;45.00
51530;BME280;37613;51.788;21.582;2023-08-12T07:21:12;100756.95;;;26.42;45.50
51530;BME280;37613;51.788;21.582;2023-08-12T07:25:14;100755.20;;;26.60;45.60
51530;BME280;37613;51.788;21.582;2023-08-12T07:29:19;100754.67;;;26.77;44.87
51530;BME280;37613;51.788;21.582;2023-08-12T07:33:23;100751.23;;;26.75;43.59
51530;BME280;37613;51.788;21.582;2023-08-12T07:37:35;100749.10;;;26.82;43.40
51530;BME280;37613;51.788;21.582;2023-08-12T07:41:37;100752.48;;;26.55;40.72
51530;BME280;37613;51.788;21.582;2023-08-12T07:45:39;100745.40;;;26.08;39.37
51530;BME280;37613;51.788;21.582;2023-08-12T07:49:42;100745.98;;;25.78;40.07
51530;BME280;37613;51.788;21.582;2023-08-12T07:53:46;100750.58;;;25.82;40.23
51530;BME280;37613;51.788;21.582;2023-08-12T07:57:55;100745.50;;;26.08;40.45
51530;BME280;37613;51.788;21.582;2023-08-12T08:01:57;100747.08;;;26.20;39.41
51530;BME280;37613;51.788;21.582;2023-08-12T08:05:59;100745.07;;;26.30;38.89
51530;BME280;37613;51.788;21.582;2023-08-12T08:10:02;100746.10;;;26.45;39.43
51530;BME280;37613;51.788;21.582;2023-08-12T08:14:07;100739.53;;;26.61;38.03
51530;BME280;37613;51.788;21.582;2023-08-12T08:18:12;100736.89;;;26.56;37.58
51530;BME280;37613;51.788;21.582;2023-08-12T08:22:17;100730.89;;;26.59;36.42
51530;BME280;37613;51.788;21.582;2023-08-12T08:26:19;100723.96;;;26.41;36.21
51530;BME280;37613;51.788;21.582;2023-08-12T08:30:22;100717.20;;;26.37;36.50
51530;BME280;37613;51.788;21.582;2023-08-12T08:34:28;100714.86;;;26.49;36.85
51530;BME280;37613;51.788;21.582;2023-08-12T08:38:32;100712.94;;;26.62;37.11
51530;BME280;37613;51.788;21.582;2023-08-12T08:42:37;100713.04;;;26.78;37.27
51530;BME280;37613;51.788;21.582;2023-08-12T08:46:41;100715.40;;;26.81;35.27
51530;BME280;37613;51.788;21.582;2023-08-12T08:50:44;100709.13;;;26.48;35.08
51530;BME280;37613;51.788;21.582;2023-08-12T08:54:47;100709.87;;;26.43;35.56
51530;BME280;37613;51.788;21.582;2023-08-12T08:58:50;100713.64;;;26.43;35.14
51530;BME280;37613;51.788;21.582;2023-08-12T09:02:53;100708.14;;;26.25;34.45
51530;BME280;37613;51.788;21.582;2023-08-12T09:06:59;100709.27;;;26.04;33.93
51530;BME280;37613;51.788;21.582;2023-08-12T09:11:08;100702.89;;;25.83;34.28
51530;BME280;37613;51.788;21.582;2023-08-12T09:15:13;100698.20;;;25.80;34.63
51530;BME280;37613;51.788;21.582;2023-08-12T09:19:18;100694.24;;;25.99;34.66
51530;BME280;37613;51.788;21.582;2023-08-12T09:23:25;100691.71;;;25.95;34.25
51530;BME280;37613;51.788;21.582;2023-08-12T09:27:32;100686.34;;;25.92;34.73
51530;BME280;37613;51.788;21.582;2023-08-12T09:31:43;100678.01;;;26.09;34.72
51530;BME280;37613;51.788;21.582;2023-08-12T09:35:49;100678.83;;;26.25;34.94
51530;BME280;37613;51.788;21.582;2023-08-12T09:39:52;100679.48;;;26.56;35.18
51530;BME280;37613;51.788;21.582;2023-08-12T09:43:55;100682.34;;;26.70;34.45
51530;BME280;37613;51.788;21.582;2023-08-12T09:47:58;100678.10;;;26.64;33.20
51530;BME280;37613;51.788;21.582;2023-08-12T09:52:04;100670.70;;;26.34;33.39
51530;BME280;37613;51.788;21.582;2023-08-12T09:56:07;100666.70;;;26.45;34.42
51530;BME280;37613;51.788;21.582;2023-08-12T10:00:20;100662.00;;;26.68;34.76
51530;BME280;37613;51.788;21.582;2023-08-12T10:04:23;100660.98;;;26.86;34.85
51530;BME280;37613;51.788;21.582;2023-08-12T10:08:29;100660.43;;;27.09;34.72
51530;BME280;37613;51.788;21.582;2023-08-12T10:12:34;100659.08;;;27.04;33.86
51530;BME280;37613;51.788;21.582;2023-08-12T10:16:38;100658.17;;;26.88;33.03
51530;BME280;37613;51.788;21.582;2023-08-12T10:20:42;100653.67;;;26.75;33.13
51530;BME280;37613;51.788;21.582;2023-08-12T10:24:49;100643.43;;;26.78;33.30
51530;BME280;37613;51.788;21.582;2023-08-12T10:28:54;100638.20;;;26.97;33.98
51530;BME280;37613;51.788;21.582;2023-08-12T10:32:59;100635.70;;;26.99;33.49
51530;BME280;37613;51.788;21.582;2023-08-12T10:37:02;100637.36;;;26.84;33.32
51530;BME280;37613;51.788;21.582;2023-08-12T10:41:35;100638.58;;;26.80;34.28
51530;BME280;37613;51.788;21.582;2023-08-12T10:45:59;100629.89;;;26.83;34.60
51530;BME280;37613;51.788;21.582;2023-08-12T10:50:02;100626.37;;;26.91;34.06
51530;BME280;37613;51.788;21.582;2023-08-12T10:58:46;100621.96;;;27.07;34.63
51530;BME280;37613;51.788;21.582;2023-08-12T11:02:50;100612.91;;;27.19;34.92
51530;BME280;37613;51.788;21.582;2023-08-12T11:06:56;100617.63;;;27.38;35.21
51530;BME280;37613;51.788;21.582;2023-08-12T11:11:01;100615.10;;;27.50;34.53
51530;BME280;37613;51.788;21.582;2023-08-12T11:15:04;100614.88;;;27.42;34.61
51530;BME280;37613;51.788;21.582;2023-08-12T11:19:07;100610.25;;;27.38;34.84
51530;BME280;37613;51.788;21.582;2023-08-12T11:23:10;100605.29;;;27.33;35.04
51530;BME280;37613;51.788;21.582;2023-08-12T11:27:13;100600.25;;;27.31;35.36
51530;BME280;37613;51.788;21.582;2023-08-12T11:31:16;100594.55;;;27.33;35.50
51530;BME280;37613;51.788;21.582;2023-08-12T11:35:22;100591.52;;;27.30;35.49
51530;BME280;37613;51.788;21.582;2023-08-12T11:39:24;100583.20;;;27.29;35.55
51530;BME280;37613;51.788;21.582;2023-08-12T11:43:32;100579.02;;;27.28;35.60
51530;BME280;37613;51.788;21.582;2023-08-12T11:47:35;100578.87;;;27.29;35.55
51530;BME280;37613;51.788;21.582;2023-08-12T11:51:45;100571.73;;;27.20;35.62
51530;BME280;37613;51.788;21.582;2023-08-12T11:55:49;100567.54;;;27.21;35.87
51530;BME280;37613;51.788;21.582;2023-08-12T11:59:51;100562.48;;;27.28;35.79
51530;BME280;37613;51.788;21.582;2023-08-12T12:04:02;100562.36;;;27.25;35.32
51530;BME280;37613;51.788;21.582;2023-08-12T12:08:05;100557.45;;;27.11;34.99
51530;BME280;37613;51.788;21.582;2023-08-12T12:12:16;100557.48;;;27.16;35.44
51530;BME280;37613;51.788;21.582;2023-08-12T12:16:24;100553.33;;;27.19;35.65
51530;BME280;37613;51.788;21.582;2023-08-12T12:20:27;100550.48;;;27.16;35.94
51530;BME280;37613;51.788;21.582;2023-08-12T12:24:44;100550.05;;;27.22;36.38
51530;BME280;37613;51.788;21.582;2023-08-12T12:28:49;100547.65;;;27.29;36.40
51530;BME280;37613;51.788;21.582;2023-08-12T12:32:54;100542.06;;;27.36;36.24
51530;BME280;37613;51.788;21.582;2023-08-12T12:36:58;100541.12;;;27.34;36.21
51530;BME280;37613;51.788;21.582;2023-08-12T12:41:01;100540.77;;;27.23;35.87
51530;BME280;37613;51.788;21.582;2023-08-12T12:45:03;100538.22;;;27.15;35.49
51530;BME280;37613;51.788;21.582;2023-08-12T12:49:05;100535.32;;;27.14;35.62
51530;BME280;37613;51.788;21.582;2023-08-12T12:53:10;100534.41;;;27.16;35.67
51530;BME280;37613;51.788;21.582;2023-08-12T12:57:12;100531.39;;;27.12;34.79
51530;BME280;37613;51.788;21.582;2023-08-12T13:01:14;100528.50;;;27.11;35.03
51530;BME280;37613;51.788;21.582;2023-08-12T13:05:16;100534.48;;;27.10;34.68
51530;BME280;37613;51.788;21.582;2023-08-12T13:09:21;100525.23;;;27.09;34.79
51530;BME280;37613;51.788;21.582;2023-08-12T13:13:26;100525.36;;;27.03;34.76
51530;BME280;37613;51.788;21.582;2023-08-12T13:17:31;100521.94;;;26.98;34.76
51530;BME280;37613;51.788;21.582;2023-08-12T13:21:33;100520.86;;;26.93;34.13
51530;BME280;37613;51.788;21.582;2023-08-12T13:25:35;100521.92;;;26.85;33.63
51530;BME280;37613;51.788;21.582;2023-08-12T13:29:40;100518.42;;;26.80;34.18
51530;BME280;37613;51.788;21.582;2023-08-12T13:33:46;100519.17;;;26.73;33.52
51530;BME280;37613;51.788;21.582;2023-08-12T13:37:49;100516.26;;;26.60;33.46
51530;BME280;37613;51.788;21.582;2023-08-12T13:41:52;100517.90;;;26.65;34.21
51530;BME280;37613;51.788;21.582;2023-08-12T13:45:56;100514.31;;;26.71;34.40
51530;BME280;37613;51.788;21.582;2023-08-12T13:50:01;100512.20;;;26.77;34.07
51530;BME280;37613;51.788;21.582;2023-08-12T13:54:04;100506.55;;;26.75;34.00
51530;BME280;37613;51.788;21.582;2023-08-12T13:58:08;100506.89;;;26.73;33.75
51530;BME280;37613;51.788;21.582;2023-08-12T14:02:20;100501.50;;;26.70;34.15
51530;BME280;37613;51.788;21.582;2023-08-12T14:06:22;100496.95;;;26.70;34.05
51530;BME280;37613;51.788;21.582;2023-08-12T14:10:24;100494.36;;;26.68;34.20
51530;BME280;37613;51.788;21.582;2023-08-12T14:14:29;100489.86;;;26.62;33.76
51530;BME280;37613;51.788;21.582;2023-08-12T14:18:33;100485.52;;;26.60;33.90
51530;BME280;37613;51.788;21.582;2023-08-12T14:22:35;100479.80;;;26.56;34.10
51530;BME280;37613;51.788;21.582;2023-08-12T14:26:37;100479.06;;;26.54;34.30
51530;BME280;37613;51.788;21.582;2023-08-12T14:30:39;100479.09;;;26.56;34.25
51530;BME280;37613;51.788;21.582;2023-08-12T14:34:42;100476.17;;;26.50;34.03
51530;BME280;37613;51.788;21.582;2023-08-12T14:38:47;100472.18;;;26.43;34.14
51530;BME280;37613;51.788;21.582;2023-08-12T14:42:48;100468.56;;;26.46;34.79
51530;BME280;37613;51.788;21.582;2023-08-12T14:46:51;100465.61;;;26.41;34.15
51530;BME280;37613;51.788;21.582;2023-08-12T14:50:53;100462.46;;;26.36;34.26
51530;BME280;37613;51.788;21.582;2023-08-12T14:54:56;100451.19;;;26.40;34.47
51530;BME280;37613;51.788;21.582;2023-08-12T14:59:03;100443.20;;;26.34;34.75
51530;BME280;37613;51.788;21.582;2023-08-12T15:03:08;100440.63;;;26.25;34.68
51530;BME280;37613;51.788;21.582;2023-08-12T15:07:12;100437.42;;;26.20;34.73
51530;BME280;37613;51.788;21.582;2023-08-12T15:11:21;100439.44;;;26.20;35.13
51530;BME280;37613;51.788;21.582;2023-08-12T15:15:24;100436.77;;;26.17;35.39
51530;BME280;37613;51.788;21.582;2023-08-12T15:19:29;100433.18;;;26.14;35.26
51530;BME280;37613;51.788;21.582;2023-08-12T15:23:36;100426.98;;;26.14;35.00
51530;BME280;37613;51.788;21.582;2023-08-12T15:27:40;100425.18;;;26.13;35.32
51530;BME280;37613;51.788;21.582;2023-08-12T15:31:43;100425.86;;;26.09;35.35
51530;BME280;37613;51.788;21.582;2023-08-12T15:35:45;100425.14;;;26.04;35.26
51530;BME280;37613;51.788;21.582;2023-08-12T15:39:50;100424.51;;;26.03;35.36
51530;BME280;37613;51.788;21.582;2023-08-12T15:43:52;100423.49;;;25.99;35.49
51530;BME280;37613;51.788;21.582;2023-08-12T15:48:07;100420.55;;;25.95;35.67
51530;BME280;37613;51.788;21.582;2023-08-12T15:52:12;100420.02;;;25.90;35.88
51530;BME280;37613;51.788;21.582;2023-08-12T15:56:15;100415.67;;;25.88;35.91
51530;BME280;37613;51.788;21.582;2023-08-12T16:00:20;100418.73;;;25.86;36.20
51530;BME280;37613;51.788;21.582;2023-08-12T16:04:22;100418.67;;;25.81;36.39
51530;BME280;37613;51.788;21.582;2023-08-12T16:08:33;100412.20;;;25.77;36.48
51530;BME280;37613;51.788;21.582;2023-08-12T16:12:36;100411.33;;;25.74;36.47
51530;BME280;37613;51.788;21.582;2023-08-12T16:16:38;100415.48;;;25.72;36.70
51530;BME280;37613;51.788;21.582;2023-08-12T16:20:46;100411.92;;;25.69;36.63
51530;BME280;37613;51.788;21.582;2023-08-12T16:24:51;100409.64;;;25.65;37.08
51530;BME280;37613;51.788;21.582;2023-08-12T16:28:53;100412.34;;;25.59;37.20
51530;BME280;37613;51.788;21.582;2023-08-12T16:32:56;100411.91;;;25.57;37.17
51530;BME280;37613;51.788;21.582;2023-08-12T16:37:01;100408.21;;;25.54;37.28
51530;BME280;37613;51.788;21.582;2023-08-12T16:41:03;100409.80;;;25.49;37.61
51530;BME280;37613;51.788;21.582;2023-08-12T16:45:16;100409.20;;;25.43;38.33
51530;BME280;37613;51.788;21.582;2023-08-12T16:49:18;100409.23;;;25.31;39.01
51530;BME280;37613;51.788;21.582;2023-08-12T16:53:20;100404.28;;;25.16;39.40
51530;BME280;37613;51.788;21.582;2023-08-12T16:57:23;100399.80;;;25.00;39.87
51530;BME280;37613;51.788;21.582;2023-08-12T17:01:25;100404.63;;;24.80;40.45
51530;BME280;37613;51.788;21.582;2023-08-12T17:05:27;100406.22;;;24.59;40.72
51530;BME280;37613;51.788;21.582;2023-08-12T17:09:29;100408.70;;;24.40;41.10
51530;BME280;37613;51.788;21.582;2023-08-12T17:13:35;100410.26;;;24.19;41.47
51530;BME280;37613;51.788;21.582;2023-08-12T17:17:39;100411.16;;;23.92;41.77
51530;BME280;37613;51.788;21.582;2023-08-12T17:21:45;100410.30;;;23.63;42.39
51530;BME280;37613;51.788;21.582;2023-08-12T17:25:47;100404.91;;;23.38;42.95
51530;BME280;37613;51.788;21.582;2023-08-12T17:29:55;100406.91;;;23.13;43.18
51530;BME280;37613;51.788;21.582;2023-08-12T17:33:58;100406.41;;;22.89;43.76
51530;BME280;37613;51.788;21.582;2023-08-12T17:38:00;100406.29;;;22.64;44.13
51530;BME280;37613;51.788;21.582;2023-08-12T17:42:05;100406.70;;;22.37;44.60
51530;BME280;37613;51.788;21.582;2023-08-12T17:46:12;100405.15;;;22.12;44.96
51530;BME280;37613;51.788;21.582;2023-08-12T17:50:20;100407.89;;;21.88;45.36
51530;BME280;37613;51.788;21.582;2023-08-12T17:54:29;100410.37;;;21.64;45.89
51530;BME280;37613;51.788;21.582;2023-08-12T17:58:37;100403.70;;;21.41;46.42
51530;BME280;37613;51.788;21.582;2023-08-12T18:02:45;100398.27;;;21.18;46.83
51530;BME280;37613;51.788;21.582;2023-08-12T18:06:47;100397.78;;;20.97;47.26
51530;BME280;37613;51.788;21.582;2023-08-12T18:10:49;100400.16;;;20.75;47.75
51530;BME280;37613;51.788;21.582;2023-08-12T18:14:54;100404.59;;;20.53;48.32
51530;BME280;37613;51.788;21.582;2023-08-12T18:18:56;100409.46;;;20.34;48.76
51530;BME280;37613;51.788;21.582;2023-08-12T18:22:58;100411.05;;;20.15;49.18
51530;BME280;37613;51.788;21.582;2023-08-12T18:27:00;100410.54;;;19.95;49.66
51530;BME280;37613;51.788;21.582;2023-08-12T18:31:02;100410.11;;;19.78;50.13
51530;BME280;37613;51.788;21.582;2023-08-12T18:35:05;100414.91;;;19.61;50.57
51530;BME280;37613;51.788;21.582;2023-08-12T18:39:09;100416.45;;;19.46;50.85
51530;BME280;37613;51.788;21.582;2023-08-12T18:43:17;100417.04;;;19.31;51.31
51530;BME280;37613;51.788;21.582;2023-08-12T18:47:23;100411.66;;;19.16;51.78
51530;BME280;37613;51.788;21.582;2023-08-12T18:51:25;100408.88;;;19.03;52.23
51530;BME280;37613;51.788;21.582;2023-08-12T18:55:27;100407.45;;;18.90;52.51
51530;BME280;37613;51.788;21.582;2023-08-12T18:59:29;100408.70;;;18.75;53.17
51530;BME280;37613;51.788;21.582;2023-08-12T19:03:34;100410.58;;;18.60;53.65
51530;BME280;37613;51.788;21.582;2023-08-12T19:07:37;100413.30;;;18.46;54.12
51530;BME280;37613;51.788;21.582;2023-08-12T19:11:43;100416.90;;;18.35;54.57
51530;BME280;37613;51.788;21.582;2023-08-12T19:15:54;100418.71;;;18.25;55.04
51530;BME280;37613;51.788;21.582;2023-08-12T19:19:57;100420.79;;;18.17;55.63
51530;BME280;37613;51.788;21.582;2023-08-12T19:23:59;100431.33;;;18.08;55.80
51530;BME280;37613;51.788;21.582;2023-08-12T19:28:05;100429.04;;;17.98;56.22
51530;BME280;37613;51.788;21.582;2023-08-12T19:32:07;100432.89;;;17.89;56.69
51530;BME280;37613;51.788;21.582;2023-08-12T19:36:10;100429.67;;;17.77;57.21
51530;BME280;37613;51.788;21.582;2023-08-12T19:40:14;100422.67;;;17.62;58.53
51530;BME280;37613;51.788;21.582;2023-08-12T19:44:20;100420.53;;;17.43;58.60
51530;BME280;37613;51.788;21.582;2023-08-12T19:48:25;100421.11;;;17.32;58.98
51530;BME280;37613;51.788;21.582;2023-08-12T19:52:27;100421.93;;;17.28;59.14
51530;BME280;37613;51.788;21.582;2023-08-12T19:56:29;100417.65;;;17.23;59.43
51530;BME280;37613;51.788;21.582;2023-08-12T20:00:35;100417.73;;;17.20;59.55
51530;BME280;37613;51.788;21.582;2023-08-12T20:04:46;100420.61;;;17.16;59.89
51530;BME280;37613;51.788;21.582;2023-08-12T20:08:49;100416.91;;;17.10;60.37
51530;BME280;37613;51.788;21.582;2023-08-12T20:12:51;100414.29;;;17.03;60.39
51530;BME280;37613;51.788;21.582;2023-08-12T20:16:55;100415.72;;;16.93;61.06
51530;BME280;37613;51.788;21.582;2023-08-12T20:21:01;100412.92;;;16.82;61.24
51530;BME280;37613;51.788;21.582;2023-08-12T20:25:04;100413.37;;;16.77;61.63
51530;BME280;37613;51.788;21.582;2023-08-12T20:29:09;100417.36;;;16.73;62.05
51530;BME280;37613;51.788;21.582;2023-08-12T20:33:12;100418.80;;;16.69;62.25
51530;BME280;37613;51.788;21.582;2023-08-12T20:37:17;100422.31;;;16.64;62.54
51530;BME280;37613;51.788;21.582;2023-08-12T20:41:26;100428.77;;;16.57;62.75
51530;BME280;37613;51.788;21.582;2023-08-12T20:45:34;100427.37;;;16.52;63.02
51530;BME280;37613;51.788;21.582;2023-08-12T20:49:37;100423.77;;;16.44;63.26
51530;BME280;37613;51.788;21.582;2023-08-12T20:53:39;100422.80;;;16.37;63.68
51530;BME280;37613;51.788;21.582;2023-08-12T20:57:42;100426.50;;;16.31;63.75
51530;BME280;37613;51.788;21.582;2023-08-12T21:01:47;100424.30;;;16.26;63.96
51530;BME280;37613;51.788;21.582;2023-08-12T21:05:51;100424.27;;;16.20;64.27
51530;BME280;37613;51.788;21.582;2023-08-12T21:09:56;100425.40;;;16.15;64.43
51530;BME280;37613;51.788;21.582;2023-08-12T21:13:58;100425.60;;;16.08;64.79